Gran Canaria, Spain
Current Conditions -  °F | °C
As of 12:00 AM on Tuesday 23 Dec 2014 (Local Time) from GCLP Reporting Station
Clear Clear  
Wind Chill: 66°   Ceiling: Unl
Heat Index: 66°   Visibility: 6mi
Dew Point: 43°   Wind: 7mph
Humidity: 43%   Direction: 340°NNW
Pressure: 30.18"   Gusts: NA
Location:  28.14°N, 15.43°W
Report Text: GCLP 230000Z 34006KT CAVOK 19/06 Q1022 NOSIG
Loading
Personal Weather Stations






























Interactive Weather Map New forecast layout! Learn more

10-Day Weather Forecast

Advertisements
Track Severe Weather on mobile